Terminal Aerodrome Forecast
Issued by NWS

Current Version | Previous Version | Text Only | Print | Product List | Glossary On
Versions: 1 2 3 4 5 6 7 8 9 10 11 12 13 14 15 16 17 18 19 20 21 22 23 24 25 26 27 28 29 30 31 32 33 34 35 36 37 38 39 40 41 42 43 44
000
FTAK31 PAFA 230129 AAB
TAFAFA
TAF AMD
PAFA 230129Z 2301/2406 05003KT 1 1/2SM -SN BR SCT006 BKN011 OVC020
     FM230200 26020G27KT 1/2SM SN FZFG BLSN OVC010
      TEMPO 2302/2304 1/4SM +SN FZFG BLSN
     FM230400 27015G24KT 1SM -SN BR OVC007
     FM232100 25011KT 4SM -SN BR OVC025=

USA.gov is the U.S. government's official web portal to all federal, state and local government web resources and services.